Time;durP1;ratioP1;P1;durP2;ratioP2;P2;SDS_P1;SDS_P2;PMS_P1;PMS_P2;Temp;Humidity;BMP_temperature;BMP_pressure;BME280_temperature;BME280_humidity;BME280_pressure;Samples;Min_cycle;Max_cycle;Signal;HPM_P1;HPM_P2
2021/11/04 00:00:33;;;;;;;10.88;7.18;;;;;;;13.27;99.62;99425.06;5122057;27;20035;-70
2021/11/04 00:02:59;;;;;;;10.10;6.38;;;;;;;13.27;99.33;99415.13;5130184;27;20051;-70
2021/11/04 00:05:25;;;;;;;10.88;6.28;;;;;;;13.26;99.32;99434.16;5126203;27;20020;-68
2021/11/04 00:07:53;;;;;;;11.68;6.47;;;;;;;13.25;99.04;99436.00;5127579;27;20015;-68
2021/11/04 00:10:20;;;;;;;8.35;6.57;;;;;;;13.27;98.65;99433.13;5120073;27;20027;-69
2021/11/04 00:12:46;;;;;;;8.10;6.18;;;;;;;13.27;98.43;99431.31;5115175;28;20111;-69
2021/11/04 00:15:12;;;;;;;10.23;6.78;;;;;;;13.25;98.27;99429.78;5124957;27;20106;-70
2021/11/04 00:17:38;;;;;;;13.85;6.55;;;;;;;13.21;98.29;99414.97;5134787;27;20102;-69
2021/11/04 00:20:06;;;;;;;9.52;6.13;;;;;;;13.19;98.03;99414.34;5120629;27;20452;-69
2021/11/04 00:22:32;;;;;;;9.88;6.65;;;;;;;13.19;97.68;99411.63;5134803;27;20038;-70
2021/11/04 00:24:58;;;;;;;8.38;6.35;;;;;;;13.17;97.67;99401.03;5133135;27;20027;-70
2021/11/04 00:27:24;;;;;;;9.52;5.85;;;;;;;13.13;97.37;99407.75;5133751;27;20099;-70
2021/11/04 00:29:49;;;;;;;9.50;6.53;;;;;;;13.20;96.51;99408.78;5134374;27;20023;-70
2021/11/04 00:32:15;;;;;;;10.57;6.53;;;;;;;13.14;96.56;99405.91;5120594;27;20030;-70
2021/11/04 00:34:40;;;;;;;12.55;6.25;;;;;;;13.12;96.57;99402.56;5130793;27;20027;-70
2021/11/04 00:37:06;;;;;;;9.57;6.55;;;;;;;13.07;96.77;99403.09;5134318;27;20031;-70
2021/11/04 00:39:31;;;;;;;11.23;6.68;;;;;;;13.09;96.55;99411.00;5134642;27;20038;-68
2021/11/04 00:41:57;;;;;;;10.98;6.32;;;;;;;13.06;96.66;99403.28;5127599;27;20072;-69
2021/11/04 00:44:22;;;;;;;9.98;6.25;;;;;;;13.03;96.58;99396.34;5130251;27;20019;-69
2021/11/04 00:46:48;;;;;;;8.65;5.80;;;;;;;13.03;96.25;99406.31;5114950;27;20031;-70
2021/11/04 00:49:14;;;;;;;7.57;5.90;;;;;;;13.04;95.84;99416.03;5131378;27;20027;-70
2021/11/04 00:51:39;;;;;;;7.75;5.45;;;;;;;13.01;95.71;99414.53;5134118;27;20031;-70
2021/11/04 00:54:05;;;;;;;8.07;5.47;;;;;;;12.97;95.97;99397.00;5123200;27;20030;-70
2021/11/04 00:56:30;;;;;;;9.50;6.43;;;;;;;12.98;95.76;99393.31;5132077;27;20031;-70
2021/11/04 00:58:56;;;;;;;12.00;6.63;;;;;;;12.94;96.22;99370.47;5134544;27;20050;-70
2021/11/04 01:01:22;;;;;;;10.25;6.28;;;;;;;12.94;95.80;99369.63;5132905;27;20040;-70
2021/11/04 01:03:50;;;;;;;10.55;5.45;;;;;;;12.93;96.02;99384.91;5132820;27;20117;-70
2021/11/04 01:06:17;;;;;;;13.10;6.60;;;;;;;12.92;95.93;99382.41;5134250;27;20127;-70
2021/11/04 01:08:42;;;;;;;10.82;6.25;;;;;;;12.93;94.94;99370.63;5133971;27;20352;-70
2021/11/04 01:11:08;;;;;;;10.27;6.07;;;;;;;12.93;95.36;99357.19;5124949;27;20034;-70
2021/11/04 01:13:36;;;;;;;10.98;5.63;;;;;;;12.90;95.46;99352.97;5131775;27;20031;-70
2021/11/04 01:16:02;;;;;;;9.60;5.55;;;;;;;12.89;95.55;99361.22;5117555;27;20034;-69
2021/11/04 01:18:28;;;;;;;11.63;6.15;;;;;;;12.88;95.47;99355.00;5119205;27;20098;-69
2021/11/04 01:20:53;;;;;;;11.65;6.50;;;;;;;12.88;95.59;99357.69;5130544;27;20041;-69
2021/11/04 01:23:19;;;;;;;10.88;6.40;;;;;;;12.86;96.14;99348.09;5123074;27;20027;-70
2021/11/04 01:25:45;;;;;;;9.55;6.60;;;;;;;12.87;95.81;99347.09;5129388;27;20049;-69
2021/11/04 01:28:10;;;;;;;9.35;6.00;;;;;;;12.86;95.71;99348.09;5114243;27;20031;-69
2021/11/04 01:30:39;;;;;;;8.68;5.93;;;;;;;12.85;95.77;99333.81;5116008;27;20038;-69
2021/11/04 01:33:08;;;;;;;13.52;6.35;;;;;;;12.82;96.18;99318.03;5134237;27;20031;-71
2021/11/04 01:35:36;;;;;;;8.98;6.47;;;;;;;12.84;95.60;99315.16;5134453;27;20023;-69
2021/11/04 01:38:04;;;;;;;10.98;6.03;;;;;;;12.83;96.00;99308.09;5133465;27;20027;-69
2021/11/04 01:40:31;;;;;;;11.98;6.22;;;;;;;12.82;96.10;99296.50;5132439;27;20481;-68
2021/11/04 01:42:57;;;;;;;8.65;6.07;;;;;;;12.82;96.44;99288.41;5120813;27;20023;-69
2021/11/04 01:45:23;;;;;;;9.35;6.60;;;;;;;12.83;95.75;99306.22;5145084;27;20027;-68
2021/11/04 01:47:51;;;;;;;13.65;6.47;;;;;;;12.81;96.11;99307.44;5112476;27;20078;-69
2021/11/04 01:50:18;;;;;;;9.27;5.82;;;;;;;12.79;96.44;99302.22;5130085;27;20028;-69
2021/11/04 01:52:45;;;;;;;11.80;6.97;;;;;;;12.81;96.52;99315.50;5122189;27;20101;-69
2021/11/04 01:55:16;;;;;;;12.45;6.72;;;;;;;12.81;96.50;99307.44;5130232;27;20119;-69
2021/11/04 01:57:42;;;;;;;10.43;6.65;;;;;;;12.79;96.80;99314.81;5113069;28;20148;-69
2021/11/04 02:00:09;;;;;;;12.80;7.18;;;;;;;12.78;96.78;99322.06;5139532;27;20529;-69
2021/11/04 02:02:42;;;;;;;10.82;7.00;;;;;;;12.76;97.04;99316.00;5112296;28;20371;-69
2021/11/04 02:05:09;;;;;;;11.60;6.93;;;;;;;12.74;96.99;99318.03;5117319;27;20124;-69
2021/11/04 02:07:52;;;;;;;12.63;7.15;;;;;;;12.77;97.25;99322.25;5112903;28;20027;-69
2021/11/04 02:10:21;;;;;;;13.07;6.75;;;;;;;12.74;97.54;99326.09;5112517;28;20035;-69
2021/11/04 02:12:57;;;;;;;9.65;6.72;;;;;;;12.75;97.35;99316.19;5111175;28;20024;-69
2021/11/04 02:15:26;;;;;;;11.88;6.57;;;;;;;12.74;97.77;99328.78;5111513;28;20110;-69
2021/11/04 02:17:56;;;;;;;11.82;6.90;;;;;;;12.73;97.86;99326.28;5127530;28;20028;-69
2021/11/04 02:20:37;;;;;;;10.25;6.78;;;;;;;12.74;97.49;99333.34;5131886;28;20502;-69
2021/11/04 02:23:24;;;;;;;10.20;6.72;;;;;;;12.70;98.03;99329.31;5125901;27;20141;-69
2021/11/04 02:25:51;;;;;;;9.38;6.63;;;;;;;12.73;98.60;99332.50;5117706;28;20080;-69
2021/11/04 02:28:19;;;;;;;15.98;7.47;;;;;;;12.72;98.48;99332.66;5126903;28;20035;-69
2021/11/04 02:30:45;;;;;;;12.23;7.72;;;;;;;12.73;98.95;99331.66;5117263;28;20101;-69
2021/11/04 02:33:11;;;;;;;15.98;8.25;;;;;;;12.69;98.80;99319.56;5119549;27;20023;-69
2021/11/04 02:35:37;;;;;;;15.13;8.15;;;;;;;12.71;99.04;99323.75;5128068;27;20408;-69
2021/11/04 02:38:03;;;;;;;11.18;8.05;;;;;;;12.69;98.95;99327.63;5116933;28;20106;-69
2021/11/04 02:40:29;;;;;;;13.18;7.63;;;;;;;12.71;99.17;99334.50;5125129;28;20050;-69
2021/11/04 02:42:55;;;;;;;13.57;8.30;;;;;;;12.71;99.53;99326.44;5126287;28;20019;-69
2021/11/04 02:45:24;;;;;;;18.08;9.68;;;;;;;12.72;99.35;99314.69;5130366;27;20135;-69
2021/11/04 02:47:50;;;;;;;14.75;8.98;;;;;;;12.71;99.82;99315.69;5122312;28;20080;-69
2021/11/04 02:50:17;;;;;;;15.63;9.43;;;;;;;12.72;99.93;99313.84;5133103;27;20486;-68
2021/11/04 02:52:43;;;;;;;14.07;8.38;;;;;;;12.71;99.99;99310.28;5132899;27;20026;-68
2021/11/04 02:55:09;;;;;;;14.63;9.32;;;;;;;12.72;100.00;99311.16;5129774;28;20382;-69
2021/11/04 02:57:43;;;;;;;11.65;8.05;;;;;;;12.72;100.00;99301.25;5111621;28;20558;-69
2021/11/04 03:00:10;;;;;;;13.77;9.35;;;;;;;12.73;100.00;99302.06;5116403;28;20118;-69
2021/11/04 03:02:35;;;;;;;13.90;8.98;;;;;;;12.74;100.00;99296.50;5132504;28;20467;-68
2021/11/04 03:05:01;;;;;;;13.48;8.95;;;;;;;12.75;100.00;99291.97;5132966;28;20027;-69
2021/11/04 03:07:26;;;;;;;15.95;8.98;;;;;;;12.71;100.00;99288.78;5118515;27;20031;-68
2021/11/04 03:09:51;;;;;;;16.38;9.77;;;;;;;12.76;100.00;99286.41;5133051;27;20441;-68
2021/11/04 03:12:17;;;;;;;12.68;9.07;;;;;;;12.74;100.00;99274.16;5127913;27;20035;-68
2021/11/04 03:14:45;;;;;;;14.27;10.10;;;;;;;12.74;100.00;99274.16;5126990;27;20024;-69
2021/11/04 03:17:10;;;;;;;17.95;9.23;;;;;;;12.74;100.00;99266.91;5152496;27;20039;-69
2021/11/04 03:19:36;;;;;;;14.38;9.75;;;;;;;12.74;100.00;99260.72;5149930;27;20023;-69
2021/11/04 03:22:03;;;;;;;18.17;9.80;;;;;;;12.73;100.00;99261.69;5125294;27;20019;-68
2021/11/04 03:24:30;;;;;;;14.80;9.70;;;;;;;12.75;100.00;99262.38;5129756;27;20118;-69
2021/11/04 03:27:00;;;;;;;15.25;10.65;;;;;;;12.75;100.00;99270.44;5114663;28;20126;-69
2021/11/04 03:29:31;;;;;;;14.25;9.90;;;;;;;12.75;100.00;99265.91;5128532;27;20018;-68
2021/11/04 03:32:00;;;;;;;14.02;9.52;;;;;;;12.73;100.00;99257.16;5130223;27;20475;-68
2021/11/04 03:34:27;;;;;;;15.30;9.98;;;;;;;12.76;100.00;99261.34;5115384;28;20468;-68
2021/11/04 03:36:54;;;;;;;14.98;10.52;;;;;;;12.74;100.00;99247.25;5126170;27;20023;-68
2021/11/04 03:39:21;;;;;;;16.73;10.18;;;;;;;12.77;100.00;99247.72;5135456;27;20102;-69
2021/11/04 03:41:49;;;;;;;14.30;10.25;;;;;;;12.79;100.00;99245.72;5118106;27;20059;-69
2021/11/04 03:44:19;;;;;;;12.82;9.65;;;;;;;12.78;100.00;99240.50;5122855;27;20026;-68
2021/11/04 03:46:45;;;;;;;15.27;10.30;;;;;;;12.79;100.00;99239.47;5128467;27;20068;-68
2021/11/04 03:49:16;;;;;;;16.27;9.93;;;;;;;12.78;100.00;99238.66;5132361;27;20109;-68
2021/11/04 03:51:43;;;;;;;15.18;10.00;;;;;;;12.79;100.00;99259.16;5133295;27;20448;-68
2021/11/04 03:54:11;;;;;;;14.13;9.88;;;;;;;12.76;100.00;99272.97;5132792;27;20027;-68
2021/11/04 03:56:38;;;;;;;15.02;10.32;;;;;;;12.81;100.00;99280.53;5114980;28;20034;-68
2021/11/04 03:59:04;;;;;;;17.65;10.57;;;;;;;12.82;100.00;99260.66;5116994;27;20031;-68
2021/11/04 04:01:33;;;;;;;17.33;9.80;;;;;;;12.85;100.00;99246.88;5123898;27;20047;-68
2021/11/04 04:04:01;;;;;;;16.75;11.07;;;;;;;12.86;100.00;99227.00;5129571;27;20496;-67
2021/11/04 04:06:26;;;;;;;15.52;10.00;;;;;;;12.85;100.00;99223.50;5117404;27;20494;-67
2021/11/04 04:08:53;;;;;;;14.20;9.65;;;;;;;12.88;100.00;99238.44;5134351;27;20019;-67
2021/11/04 04:11:20;;;;;;;16.38;10.20;;;;;;;12.89;100.00;99249.03;5124679;27;20483;-68
2021/11/04 04:13:46;;;;;;;14.73;10.30;;;;;;;12.81;100.00;99229.41;5133583;27;20065;-68
2021/11/04 04:16:12;;;;;;;16.83;11.10;;;;;;;12.91;100.00;99238.09;5133761;27;20520;-67
2021/11/04 04:18:37;;;;;;;14.38;10.55;;;;;;;12.92;100.00;99237.06;5126899;27;20473;-67
2021/11/04 04:21:02;;;;;;;16.58;10.68;;;;;;;12.92;100.00;99204.78;5128534;27;20034;-68
2021/11/04 04:23:28;;;;;;;14.52;9.77;;;;;;;12.96;100.00;99190.78;5115800;27;20097;-68
2021/11/04 04:25:53;;;;;;;17.30;11.57;;;;;;;12.93;100.00;99184.94;5114137;28;20031;-67
2021/11/04 04:28:19;;;;;;;16.90;10.70;;;;;;;12.96;100.00;99198.06;5116162;27;20019;-67
2021/11/04 04:30:45;;;;;;;15.23;10.93;;;;;;;12.97;100.00;99207.78;5131059;27;20055;-68
2021/11/04 04:33:11;;;;;;;16.55;11.48;;;;;;;12.95;100.00;99194.50;5127875;27;20057;-68
2021/11/04 04:35:37;;;;;;;15.07;10.63;;;;;;;12.97;100.00;99184.38;5120480;27;20019;-67
2021/11/04 04:38:02;;;;;;;17.38;11.82;;;;;;;12.98;100.00;99180.69;5134524;27;20031;-68
2021/11/04 04:40:28;;;;;;;16.90;10.70;;;;;;;12.98;100.00;99177.16;5125309;27;20027;-68
2021/11/04 04:42:53;;;;;;;14.75;10.85;;;;;;;13.01;100.00;99171.47;5128425;27;20047;-68
2021/11/04 04:45:18;;;;;;;16.10;10.68;;;;;;;13.00;100.00;99167.09;5130175;27;20027;-68
2021/11/04 04:47:44;;;;;;;17.95;10.80;;;;;;;13.00;100.00;99170.59;5131395;27;20016;-68
2021/11/04 04:50:10;;;;;;;17.40;9.95;;;;;;;13.04;100.00;99181.88;5117488;27;20061;-68
2021/11/04 04:52:36;;;;;;;15.73;10.27;;;;;;;13.05;100.00;99195.16;5131659;27;20027;-68
2021/11/04 04:55:03;;;;;;;18.15;11.05;;;;;;;13.04;100.00;99196.19;5132865;27;20085;-68
2021/11/04 04:57:29;;;;;;;17.23;10.50;;;;;;;13.06;100.00;99190.63;5122431;27;20024;-68
2021/11/04 04:59:57;;;;;;;15.77;9.48;;;;;;;13.07;100.00;99193.13;5134364;27;20446;-68
2021/11/04 05:02:24;;;;;;;14.60;9.85;;;;;;;13.08;100.00;99191.25;5117203;27;20422;-68
2021/11/04 05:04:49;;;;;;;16.70;9.32;;;;;;;13.09;100.00;99191.06;5114256;27;20139;-68
2021/11/04 05:07:16;;;;;;;18.65;10.90;;;;;;;13.12;100.00;99225.72;5117190;27;20098;-68
2021/11/04 05:09:41;;;;;;;15.68;10.38;;;;;;;13.12;100.00;99216.78;5134948;27;20412;-69
2021/11/04 05:12:08;;;;;;;15.68;9.60;;;;;;;13.17;100.00;99206.34;5133537;27;20091;-69
2021/11/04 05:14:33;;;;;;;17.88;9.73;;;;;;;13.17;100.00;99198.28;5129766;27;20039;-68
2021/11/04 05:16:59;;;;;;;19.95;10.10;;;;;;;13.17;100.00;99204.50;5126808;27;20086;-68
2021/11/04 05:19:24;;;;;;;15.30;10.00;;;;;;;13.21;100.00;99216.59;5125182;27;20396;-68
2021/11/04 05:21:50;;;;;;;15.82;10.23;;;;;;;13.21;100.00;99213.03;5124863;27;20020;-68
2021/11/04 05:24:15;;;;;;;16.70;11.07;;;;;;;13.23;100.00;99236.06;5114517;27;20035;-68
2021/11/04 05:26:41;;;;;;;15.63;10.32;;;;;;;13.25;100.00;99225.13;5116116;27;20036;-67
2021/11/04 05:29:07;;;;;;;18.35;11.15;;;;;;;13.22;100.00;99195.91;5121515;27;20031;-67
2021/11/04 05:31:33;;;;;;;17.15;11.55;;;;;;;13.29;100.00;99229.16;5125881;27;20023;-69
2021/11/04 05:33:59;;;;;;;16.70;10.90;;;;;;;13.31;100.00;99224.41;5115927;27;20168;-69
2021/11/04 05:36:25;;;;;;;20.00;11.55;;;;;;;13.32;100.00;99223.44;5124450;27;20027;-69
2021/11/04 05:38:51;;;;;;;19.33;12.73;;;;;;;13.35;100.00;99252.69;5128014;27;20019;-69
2021/11/04 05:41:17;;;;;;;23.05;13.57;;;;;;;13.33;100.00;99279.81;5123152;27;20048;-69
2021/11/04 05:43:43;;;;;;;21.33;12.20;;;;;;;13.32;100.00;99275.41;5124688;27;20023;-69
2021/11/04 05:46:09;;;;;;;19.13;12.70;;;;;;;13.35;100.00;99274.25;5118397;27;20027;-69
2021/11/04 05:48:34;;;;;;;17.65;12.35;;;;;;;13.33;100.00;99274.41;5132700;27;20026;-69
2021/11/04 05:51:00;;;;;;;20.50;13.60;;;;;;;13.40;100.00;99301.47;5116169;27;20456;-69
2021/11/04 05:53:25;;;;;;;19.10;13.55;;;;;;;13.46;100.00;99298.06;5116904;27;20024;-70
2021/11/04 05:55:51;;;;;;;21.38;13.82;;;;;;;13.42;100.00;99288.66;5115964;28;20049;-70
2021/11/04 05:58:18;;;;;;;20.27;12.77;;;;;;;13.42;100.00;99308.34;5136579;27;20015;-70
2021/11/04 06:00:43;;;;;;;19.25;12.70;;;;;;;13.40;100.00;99306.84;5147077;27;20020;-69
2021/11/04 06:03:11;;;;;;;22.17;12.23;;;;;;;13.42;100.00;99308.34;5179916;27;20044;-69
2021/11/04 06:05:41;;;;;;;19.15;11.98;;;;;;;13.40;100.00;99310.38;5146435;27;20030;-69
2021/11/04 06:08:08;;;;;;;20.52;11.93;;;;;;;13.39;100.00;99305.19;5149481;27;20066;-68
2021/11/04 06:10:33;;;;;;;24.45;12.48;;;;;;;13.39;100.00;99322.16;5146454;27;20031;-70
2021/11/04 06:12:59;;;;;;;19.33;12.52;;;;;;;13.39;100.00;99332.09;5141656;27;20049;-70
2021/11/04 06:15:24;;;;;;;19.38;12.52;;;;;;;13.38;100.00;99341.19;5133218;27;20015;-69
2021/11/04 06:17:50;;;;;;;20.52;12.85;;;;;;;13.32;100.00;99323.88;5141846;27;20058;-69
2021/11/04 06:20:16;;;;;;;21.23;12.60;;;;;;;13.37;100.00;99312.59;5136373;27;20024;-69
2021/11/04 06:22:41;;;;;;;18.83;12.68;;;;;;;13.35;100.00;99312.75;5143916;27;20019;-69
2021/11/04 06:25:07;;;;;;;17.58;12.52;;;;;;;13.35;100.00;99318.16;5150921;27;20047;-69
2021/11/04 06:27:33;;;;;;;21.17;13.50;;;;;;;13.35;100.00;99303.84;5142114;27;20027;-69
2021/11/04 06:29:59;;;;;;;24.98;13.45;;;;;;;13.35;100.00;99279.63;5158118;27;20019;-68
2021/11/04 06:32:25;;;;;;;20.10;12.85;;;;;;;13.34;100.00;99270.69;5167304;27;20023;-68
2021/11/04 06:34:50;;;;;;;22.40;12.88;;;;;;;13.36;100.00;99246.28;5133470;27;20091;-68
2021/11/04 06:37:16;;;;;;;20.30;13.40;;;;;;;13.34;100.00;99243.75;5118718;27;20560;-68
2021/11/04 06:39:41;;;;;;;21.35;12.95;;;;;;;13.37;100.00;99242.56;5120908;27;20086;-69
2021/11/04 06:42:07;;;;;;;19.15;13.35;;;;;;;13.40;100.00;99239.50;5124695;27;20126;-68
2021/11/04 06:44:33;;;;;;;20.52;13.18;;;;;;;13.41;100.00;99233.09;5128899;27;20091;-69
2021/11/04 06:47:00;;;;;;;17.52;12.77;;;;;;;13.44;100.00;99230.91;5147289;27;20113;-68
2021/11/04 06:49:28;;;;;;;22.33;12.88;;;;;;;13.45;100.00;99227.19;5128772;27;20526;-68
2021/11/04 06:51:56;;;;;;;22.65;14.55;;;;;;;13.49;100.00;99228.53;5133272;27;20578;-69
2021/11/04 06:54:25;;;;;;;28.35;16.48;;;;;;;13.52;100.00;99232.69;5131990;27;20022;-69
2021/11/04 06:56:51;;;;;;;22.70;15.35;;;;;;;13.54;100.00;99225.25;5129104;27;20467;-69
2021/11/04 06:59:21;;;;;;;22.75;12.95;;;;;;;13.55;100.00;99222.38;5133128;27;20543;-69
2021/11/04 07:01:58;;;;;;;27.75;13.93;;;;;;;13.55;100.00;99225.09;5132001;27;20627;-69
2021/11/04 07:04:29;;;;;;;25.05;13.90;;;;;;;13.60;100.00;99220.00;5126537;27;20038;-68
2021/11/04 07:07:12;;;;;;;20.92;12.93;;;;;;;13.62;100.00;99222.53;5126796;27;20035;-68
2021/11/04 07:09:42;;;;;;;20.17;13.18;;;;;;;13.64;100.00;99221.31;5126567;27;20027;-68
2021/11/04 07:12:10;;;;;;;22.85;13.40;;;;;;;13.71;100.00;99218.75;5129272;27;20033;-69
2021/11/04 07:14:40;;;;;;;21.27;13.07;;;;;;;13.74;100.00;99211.13;5142929;27;20027;-69
2021/11/04 07:17:06;;;;;;;25.17;12.75;;;;;;;13.78;100.00;99214.31;5150885;27;20027;-67
2021/11/04 07:19:32;;;;;;;21.52;12.73;;;;;;;13.85;100.00;99209.84;5132360;27;20466;-69
2021/11/04 07:22:04;;;;;;;22.65;12.57;;;;;;;13.91;100.00;99222.59;5148608;27;20023;-69
2021/11/04 07:24:33;;;;;;;23.65;13.15;;;;;;;13.94;100.00;99214.16;5137772;27;20029;-69
2021/11/04 07:27:10;;;;;;;18.77;12.32;;;;;;;14.00;100.00;99217.97;5139341;27;20041;-69
2021/11/04 07:29:41;;;;;;;20.00;11.95;;;;;;;14.04;100.00;99203.09;5153495;27;20268;-69
2021/11/04 07:32:09;;;;;;;18.90;11.93;;;;;;;14.06;100.00;99211.84;5148849;27;20035;-69
2021/11/04 07:34:34;;;;;;;21.38;12.23;;;;;;;14.09;100.00;99215.00;5121081;27;20038;-69
2021/11/04 07:37:00;;;;;;;16.92;11.35;;;;;;;14.13;100.00;99213.63;5113869;27;20114;-69
2021/11/04 07:39:26;;;;;;;17.38;11.45;;;;;;;14.16;100.00;99220.50;5123773;27;20027;-69
2021/11/04 07:41:53;;;;;;;17.38;11.27;;;;;;;14.16;100.00;99207.88;5129392;27;20023;-69
2021/11/04 07:44:19;;;;;;;18.13;10.07;;;;;;;14.19;100.00;99222.84;5131798;27;20475;-69
2021/11/04 07:46:44;;;;;;;16.40;10.50;;;;;;;14.19;100.00;99229.06;5133852;27;20087;-69
2021/11/04 07:49:10;;;;;;;15.73;10.05;;;;;;;14.23;100.00;99224.19;5136323;27;20027;-68
2021/11/04 07:51:35;;;;;;;22.85;12.35;;;;;;;14.26;100.00;99224.66;5120760;27;20114;-69
2021/11/04 07:54:01;;;;;;;17.40;10.65;;;;;;;14.20;100.00;99189.44;5114732;27;20106;-68
2021/11/04 07:56:26;;;;;;;18.75;11.02;;;;;;;14.29;100.00;99200.00;5115216;27;20065;-69
2021/11/04 07:58:52;;;;;;;18.55;9.88;;;;;;;14.38;100.00;99196.19;5129257;27;20034;-70
2021/11/04 08:01:17;;;;;;;21.23;10.25;;;;;;;14.36;100.00;99195.56;5122521;27;20024;-69
2021/11/04 08:03:44;;;;;;;17.08;10.27;;;;;;;14.43;100.00;99204.56;5114235;27;20046;-69
2021/11/04 08:06:10;;;;;;;25.48;10.07;;;;;;;14.42;100.00;99192.13;5118909;27;20038;-69
2021/11/04 08:08:36;;;;;;;13.93;9.75;;;;;;;14.44;100.00;99194.63;5136632;27;20410;-69
2021/11/04 08:11:02;;;;;;;18.35;9.40;;;;;;;14.41;100.00;99184.22;5144104;27;20140;-68
2021/11/04 08:13:27;;;;;;;15.85;9.73;;;;;;;14.48;100.00;99194.03;5121881;27;20058;-68
2021/11/04 08:15:52;;;;;;;18.75;9.10;;;;;;;14.52;100.00;99197.22;5122660;27;20075;-68
2021/11/04 08:18:18;;;;;;;19.27;9.90;;;;;;;14.52;100.00;99186.41;5126885;27;20119;-68
2021/11/04 08:20:44;;;;;;;15.90;9.05;;;;;;;14.57;100.00;99190.22;5133973;27;20019;-68
2021/11/04 08:23:11;;;;;;;15.18;9.50;;;;;;;14.64;100.00;99188.44;5124457;27;20075;-68
2021/11/04 08:25:38;;;;;;;19.58;9.98;;;;;;;14.70;100.00;99200.38;5123750;27;20035;-68
2021/11/04 08:28:04;;;;;;;16.50;10.50;;;;;;;14.70;100.00;99193.09;5132448;27;20046;-69
2021/11/04 08:30:29;;;;;;;24.02;10.75;;;;;;;14.68;100.00;99181.66;5128306;27;20019;-69
2021/11/04 08:32:55;;;;;;;21.42;11.13;;;;;;;14.80;100.00;99196.34;5152569;27;20026;-68
2021/11/04 08:35:21;;;;;;;21.80;12.75;;;;;;;14.82;100.00;99178.09;5131204;27;20030;-69
2021/11/04 08:37:46;;;;;;;20.08;11.95;;;;;;;14.91;100.00;99182.38;5132187;27;20039;-69
2021/11/04 08:40:12;;;;;;;23.40;12.07;;;;;;;14.97;100.00;99191.56;5127951;27;20352;-68
2021/11/04 08:42:38;;;;;;;20.27;11.13;;;;;;;15.08;100.00;99193.75;5124042;27;20035;-69
2021/11/04 08:45:08;;;;;;;15.98;10.07;;;;;;;15.13;100.00;99180.53;5122563;27;20028;-69
2021/11/04 08:47:34;;;;;;;18.02;9.82;;;;;;;15.17;100.00;99182.66;5150748;27;20030;-69
2021/11/04 08:50:00;;;;;;;25.40;10.05;;;;;;;15.23;100.00;99175.66;5137681;27;20040;-69
2021/11/04 08:52:27;;;;;;;19.42;10.57;;;;;;;15.33;100.00;99158.09;5138560;27;20042;-69
2021/11/04 08:54:53;;;;;;;20.77;11.35;;;;;;;15.38;100.00;99155.69;5131686;27;20096;-69
2021/11/04 08:57:19;;;;;;;26.23;10.70;;;;;;;15.48;100.00;99171.59;5118945;27;20085;-69
2021/11/04 08:59:45;;;;;;;22.10;9.77;;;;;;;15.54;100.00;99177.03;5121598;27;20039;-69
2021/11/04 09:02:12;;;;;;;20.02;8.70;;;;;;;15.58;100.00;99189.13;5112974;27;20447;-70
2021/11/04 09:04:42;;;;;;;18.58;8.30;;;;;;;15.62;100.00;99186.88;5113799;27;20039;-69
2021/11/04 09:07:29;;;;;;;16.63;7.78;;;;;;;15.65;100.00;99194.59;5131121;27;20027;-69
2021/11/04 09:09:54;;;;;;;18.13;9.02;;;;;;;15.74;100.00;99196.16;5119449;27;20063;-69
2021/11/04 09:12:20;;;;;;;20.48;9.55;;;;;;;15.78;100.00;99194.72;5116058;27;20070;-71
2021/11/04 09:14:46;;;;;;;18.98;8.38;;;;;;;15.82;100.00;99191.44;5129861;27;20015;-69
2021/11/04 09:17:12;;;;;;;14.88;7.88;;;;;;;15.87;100.00;99186.25;5133862;27;20027;-69
2021/11/04 09:19:38;;;;;;;15.35;7.43;;;;;;;15.90;100.00;99183.16;5132064;27;20027;-69
2021/11/04 09:22:04;;;;;;;17.38;6.55;;;;;;;15.93;100.00;99177.38;5130932;27;20023;-69
2021/11/04 09:24:30;;;;;;;19.55;7.28;;;;;;;15.99;100.00;99177.63;5121224;27;20085;-69
2021/11/04 09:27:03;;;;;;;15.48;6.18;;;;;;;16.04;100.00;99172.44;5127456;27;20756;-69
2021/11/04 09:29:32;;;;;;;13.65;6.13;;;;;;;16.14;100.00;99235.16;5121360;27;20031;-69
2021/11/04 09:31:58;;;;;;;17.67;7.00;;;;;;;16.26;100.00;99348.06;5126074;27;20023;-68
2021/11/04 09:34:24;;;;;;;15.43;7.68;;;;;;;16.29;100.00;99396.41;5130237;27;20029;-68
2021/11/04 09:36:50;;;;;;;14.88;8.43;;;;;;;16.34;100.00;99414.75;5128400;27;20038;-69
2021/11/04 09:39:15;;;;;;;18.83;7.72;;;;;;;16.46;100.00;99460.09;5116805;27;20042;-68
2021/11/04 09:41:42;;;;;;;17.20;8.02;;;;;;;16.54;100.00;99478.88;5126133;27;20028;-68
2021/11/04 09:44:11;;;;;;;16.63;8.00;;;;;;;16.34;100.00;99487.81;5129114;27;20523;-68
2021/11/04 09:46:37;;;;;;;16.13;8.65;;;;;;;16.04;100.00;99426.69;5112391;27;20036;-68
2021/11/04 09:49:04;;;;;;;13.65;8.27;;;;;;;15.93;100.00;99482.97;5117540;27;20110;-68
2021/11/04 09:51:30;;;;;;;14.20;8.85;;;;;;;15.93;100.00;99473.19;5125957;27;20391;-69
2021/11/04 09:53:55;;;;;;;13.05;8.63;;;;;;;15.77;100.00;99425.56;5127803;27;20035;-69
2021/11/04 09:56:21;;;;;;;13.77;8.90;;;;;;;15.68;100.00;99430.22;5123195;27;20034;-69
2021/11/04 09:58:47;;;;;;;20.52;9.60;;;;;;;15.67;100.00;99447.47;5123597;27;20050;-68
2021/11/04 10:01:25;;;;;;;12.32;8.85;;;;;;;15.64;100.00;99442.44;5131889;27;20580;-68
2021/11/04 10:03:51;;;;;;;14.35;8.98;;;;;;;15.63;100.00;99448.03;5129428;27;20402;-68
2021/11/04 10:06:29;;;;;;;12.85;9.15;;;;;;;15.54;100.00;99436.47;5112390;28;20027;-68
2021/11/04 10:08:58;;;;;;;16.13;9.20;;;;;;;15.55;100.00;99435.44;5128810;27;20023;-68
2021/11/04 10:11:29;;;;;;;17.63;10.27;;;;;;;15.52;100.00;99426.91;5122261;27;20043;-69
2021/11/04 10:14:02;;;;;;;19.05;10.70;;;;;;;15.51;100.00;99423.34;5132972;27;20046;-69
2021/11/04 10:16:28;;;;;;;17.17;10.10;;;;;;;15.49;100.00;99451.59;5122296;27;20363;-69
2021/11/04 10:18:54;;;;;;;12.13;9.52;;;;;;;15.51;100.00;99452.25;5118393;28;20044;-69
2021/11/04 10:21:24;;;;;;;17.75;11.10;;;;;;;15.50;100.00;99461.38;5112397;28;20444;-69
2021/11/04 10:23:49;;;;;;;17.95;10.20;;;;;;;15.48;100.00;99468.84;5137322;27;20019;-68
2021/11/04 10:26:18;;;;;;;17.73;12.77;;;;;;;15.50;100.00;99472.19;5141516;27;20090;-68
2021/11/04 10:28:46;;;;;;;16.90;12.93;;;;;;;15.50;100.00;99493.81;5137312;27;20038;-68
2021/11/04 10:31:16;;;;;;;18.52;13.43;;;;;;;15.49;100.00;99486.72;5115129;27;20035;-68
2021/11/04 10:33:45;;;;;;;18.83;13.05;;;;;;;15.46;100.00;99501.47;5134963;27;20543;-68
2021/11/04 10:36:24;;;;;;;17.55;12.90;;;;;;;15.48;100.00;99504.78;5119602;27;20015;-68
2021/11/04 10:38:57;;;;;;;15.85;12.90;;;;;;;15.50;100.00;99486.53;5120597;27;20048;-68
2021/11/04 10:41:28;;;;;;;17.13;12.83;;;;;;;15.55;100.00;99486.81;5121748;27;20043;-68
2021/11/04 10:44:21;;;;;;;17.02;13.55;;;;;;;15.61;100.00;99526.59;5125024;27;20035;-68
2021/11/04 10:46:48;;;;;;;17.85;13.63;;;;;;;15.64;100.00;99511.91;5122117;27;20112;-68
2021/11/04 10:49:15;;;;;;;17.45;12.63;;;;;;;15.65;100.00;99511.72;5123950;27;20027;-68
2021/11/04 10:51:42;;;;;;;18.58;14.35;;;;;;;15.70;100.00;99524.66;5134686;27;20050;-68
2021/11/04 10:54:17;;;;;;;21.40;15.18;;;;;;;15.73;100.00;99535.09;5128913;27;20467;-68
2021/11/04 10:56:45;;;;;;;23.30;16.33;;;;;;;15.67;100.00;99528.56;5126531;27;20034;-68
2021/11/04 10:59:13;;;;;;;24.73;15.18;;;;;;;15.81;100.00;99546.66;5123642;27;20039;-68
2021/11/04 11:01:42;;;;;;;18.85;14.00;;;;;;;15.79;100.00;99546.00;5132392;27;20390;-69
2021/11/04 11:04:21;;;;;;;18.15;12.32;;;;;;;15.69;100.00;99523.81;5144519;27;20044;-68
2021/11/04 11:06:51;;;;;;;19.58;13.07;;;;;;;15.79;100.00;99539.75;5115671;28;20050;-68
2021/11/04 11:09:19;;;;;;;16.33;12.38;;;;;;;15.79;100.00;99545.16;5122782;27;20036;-68
2021/11/04 11:11:47;;;;;;;19.98;15.02;;;;;;;15.78;100.00;99555.16;5122472;27;20030;-68
2021/11/04 11:14:15;;;;;;;17.48;12.93;;;;;;;15.79;100.00;99562.25;5154093;27;20414;-68
2021/11/04 11:16:48;;;;;;;17.55;13.93;;;;;;;15.77;100.00;99566.16;5156654;27;20027;-68